sensor_id;sensor_type;location;lat;lon;timestamp;pressure;altitude;pressure_sealevel;temperature;humidity
78825;BME280;68176;45.554;10.220;2023-08-12T00:01:29;100539.41;;;28.10;48.47
78825;BME280;68176;45.554;10.220;2023-08-12T00:03:59;100545.91;;;28.20;48.68
78825;BME280;68176;45.554;10.220;2023-08-12T00:06:29;100547.41;;;28.16;48.68
78825;BME280;68176;45.554;10.220;2023-08-12T00:08:59;100543.41;;;28.19;48.70
78825;BME280;68176;45.554;10.220;2023-08-12T00:11:29;100529.44;;;28.10;48.67
78825;BME280;68176;45.554;10.220;2023-08-12T00:13:59;100539.78;;;28.13;48.38
78825;BME280;68176;45.554;10.220;2023-08-12T00:16:29;100528.41;;;28.11;48.67
78825;BME280;68176;45.554;10.220;2023-08-12T00:18:59;100522.84;;;28.06;48.55
78825;BME280;68176;45.554;10.220;2023-08-12T00:21:29;100540.59;;;28.14;48.81
78825;BME280;68176;45.554;10.220;2023-08-12T00:23:59;100536.72;;;28.10;48.69
78825;BME280;68176;45.554;10.220;2023-08-12T00:26:29;100532.59;;;28.07;48.68
78825;BME280;68176;45.554;10.220;2023-08-12T00:28:59;100546.81;;;28.14;49.01
78825;BME280;68176;45.554;10.220;2023-08-12T00:31:29;100541.63;;;28.13;48.75
78825;BME280;68176;45.554;10.220;2023-08-12T00:33:59;100544.59;;;28.11;48.88
78825;BME280;68176;45.554;10.220;2023-08-12T00:36:29;100528.69;;;28.03;48.62
78825;BME280;68176;45.554;10.220;2023-08-12T00:38:59;100534.72;;;28.05;48.61
78825;BME280;68176;45.554;10.220;2023-08-12T00:41:29;100529.50;;;28.03;48.73
78825;BME280;68176;45.554;10.220;2023-08-12T00:43:59;100533.63;;;28.06;48.75
78825;BME280;68176;45.554;10.220;2023-08-12T00:46:29;100540.91;;;28.05;48.56
78825;BME280;68176;45.554;10.220;2023-08-12T00:48:59;100513.50;;;27.90;48.85
78825;BME280;68176;45.554;10.220;2023-08-12T00:51:29;100523.84;;;27.93;48.61
78825;BME280;68176;45.554;10.220;2023-08-12T00:54:00;100537.81;;;28.02;48.86
78825;BME280;68176;45.554;10.220;2023-08-12T00:56:30;100526.31;;;27.95;48.64
78825;BME280;68176;45.554;10.220;2023-08-12T00:59:00;100533.31;;;27.96;48.80
78825;BME280;68176;45.554;10.220;2023-08-12T01:01:30;100512.09;;;27.88;48.87
78825;BME280;68176;45.554;10.220;2023-08-12T01:03:59;100525.84;;;27.98;48.56
78825;BME280;68176;45.554;10.220;2023-08-12T01:06:30;100519.72;;;27.91;48.90
78825;BME280;68176;45.554;10.220;2023-08-12T01:09:00;100507.03;;;27.80;48.90
78825;BME280;68176;45.554;10.220;2023-08-12T01:14:19;100524.81;;;27.81;48.78
78825;BME280;68176;45.554;10.220;2023-08-12T01:16:51;100520.25;;;27.81;48.93
78825;BME280;68176;45.554;10.220;2023-08-12T01:19:30;100511.81;;;27.78;48.99
78825;BME280;68176;45.554;10.220;2023-08-12T01:22:00;100519.69;;;27.79;48.94
78825;BME280;68176;45.554;10.220;2023-08-12T01:24:33;100517.94;;;27.85;48.97
78825;BME280;68176;45.554;10.220;2023-08-12T01:27:00;100501.72;;;27.73;48.79
78825;BME280;68176;45.554;10.220;2023-08-12T01:29:26;100508.16;;;27.72;48.87
78825;BME280;68176;45.554;10.220;2023-08-12T01:37:32;100514.97;;;27.75;49.12
78825;BME280;68176;45.554;10.220;2023-08-12T01:40:01;100500.16;;;27.66;49.05
78825;BME280;68176;45.554;10.220;2023-08-12T01:42:30;100507.78;;;27.69;49.25
78825;BME280;68176;45.554;10.220;2023-08-12T01:44:56;100506.75;;;27.70;48.98
78825;BME280;68176;45.554;10.220;2023-08-12T01:47:24;100478.47;;;27.61;48.93
78825;BME280;68176;45.554;10.220;2023-08-12T01:49:54;100482.31;;;27.65;49.02
78825;BME280;68176;45.554;10.220;2023-08-12T01:52:24;100489.38;;;27.66;48.78
78825;BME280;68176;45.554;10.220;2023-08-12T01:54:54;100505.47;;;27.72;49.32
78825;BME280;68176;45.554;10.220;2023-08-12T01:57:24;100488.19;;;27.62;49.14
78825;BME280;68176;45.554;10.220;2023-08-12T01:59:54;100487.34;;;27.61;48.94
78825;BME280;68176;45.554;10.220;2023-08-12T02:02:24;100487.72;;;27.65;49.07
78825;BME280;68176;45.554;10.220;2023-08-12T02:04:54;100475.03;;;27.53;49.09
78825;BME280;68176;45.554;10.220;2023-08-12T02:07:24;100469.19;;;27.57;48.97
78825;BME280;68176;45.554;10.220;2023-08-12T02:09:54;100482.78;;;27.62;48.94
78825;BME280;68176;45.554;10.220;2023-08-12T02:12:24;100471.28;;;27.54;49.01
78825;BME280;68176;45.554;10.220;2023-08-12T02:14:54;100489.81;;;27.63;48.87
78825;BME280;68176;45.554;10.220;2023-08-12T02:17:24;100471.50;;;27.53;49.21
78825;BME280;68176;45.554;10.220;2023-08-12T02:19:54;100479.38;;;27.54;49.18
78825;BME280;68176;45.554;10.220;2023-08-12T02:22:24;100473.38;;;27.52;48.88
78825;BME280;68176;45.554;10.220;2023-08-12T02:24:54;100475.25;;;27.52;48.88
78825;BME280;68176;45.554;10.220;2023-08-12T02:27:24;100475.47;;;27.50;48.92
78825;BME280;68176;45.554;10.220;2023-08-12T02:29:54;100486.56;;;27.61;49.23
78825;BME280;68176;45.554;10.220;2023-08-12T02:32:24;100476.31;;;27.51;49.11
78825;BME280;68176;45.554;10.220;2023-08-12T02:34:54;100473.81;;;27.49;48.99
78825;BME280;68176;45.554;10.220;2023-08-12T02:37:24;100484.75;;;27.54;48.88
78825;BME280;68176;45.554;10.220;2023-08-12T02:39:54;100471.59;;;27.46;49.17
78825;BME280;68176;45.554;10.220;2023-08-12T02:42:24;100476.75;;;27.48;49.19
78825;BME280;68176;45.554;10.220;2023-08-12T02:44:54;100469.13;;;27.45;49.04
78825;BME280;68176;45.554;10.220;2023-08-12T02:47:24;100456.75;;;27.37;48.88
78825;BME280;68176;45.554;10.220;2023-08-12T02:49:54;100464.84;;;27.37;48.92
78825;BME280;68176;45.554;10.220;2023-08-12T02:52:24;100479.66;;;27.46;48.87
78825;BME280;68176;45.554;10.220;2023-08-12T02:54:54;100470.81;;;27.39;48.78
78825;BME280;68176;45.554;10.220;2023-08-12T02:57:24;100481.78;;;27.44;48.88
78825;BME280;68176;45.554;10.220;2023-08-12T02:59:54;100473.38;;;27.34;49.11
78825;BME280;68176;45.554;10.220;2023-08-12T03:02:24;100494.19;;;27.45;48.95
78825;BME280;68176;45.554;10.220;2023-08-12T03:04:54;100464.09;;;27.30;49.20
78825;BME280;68176;45.554;10.220;2023-08-12T03:07:24;100487.75;;;27.46;48.88
78825;BME280;68176;45.554;10.220;2023-08-12T03:09:54;100483.25;;;27.40;49.06
78825;BME280;68176;45.554;10.220;2023-08-12T03:12:24;100483.44;;;27.39;49.26
78825;BME280;68176;45.554;10.220;2023-08-12T03:14:54;100476.66;;;27.36;49.07
78825;BME280;68176;45.554;10.220;2023-08-12T03:17:24;100482.66;;;27.38;49.17
78825;BME280;68176;45.554;10.220;2023-08-12T03:19:57;100468.19;;;27.33;49.05
78825;BME280;68176;45.554;10.220;2023-08-12T03:22:26;100450.94;;;27.22;49.13
78825;BME280;68176;45.554;10.220;2023-08-12T03:24:54;100481.81;;;27.38;49.09
78825;BME280;68176;45.554;10.220;2023-08-12T03:27:24;100472.78;;;27.32;48.76
78825;BME280;68176;45.554;10.220;2023-08-12T03:29:55;100488.50;;;27.35;48.98
78825;BME280;68176;45.554;10.220;2023-08-12T03:32:25;100468.25;;;27.26;48.96
78825;BME280;68176;45.554;10.220;2023-08-12T03:34:55;100470.38;;;27.24;48.94
78825;BME280;68176;45.554;10.220;2023-08-12T03:37:25;100467.94;;;27.23;48.89
78825;BME280;68176;45.554;10.220;2023-08-12T03:39:54;100489.75;;;27.33;48.91
78825;BME280;68176;45.554;10.220;2023-08-12T03:42:25;100480.69;;;27.27;49.02
78825;BME280;68176;45.554;10.220;2023-08-12T03:44:55;100487.75;;;27.28;49.05
78825;BME280;68176;45.554;10.220;2023-08-12T03:47:25;100476.00;;;27.23;49.28
78825;BME280;68176;45.554;10.220;2023-08-12T03:49:55;100486.09;;;27.27;49.37
78825;BME280;68176;45.554;10.220;2023-08-12T03:52:24;100479.94;;;27.20;48.84
78825;BME280;68176;45.554;10.220;2023-08-12T03:54:55;100482.81;;;27.25;49.28
78825;BME280;68176;45.554;10.220;2023-08-12T03:57:25;100480.41;;;27.17;49.11
78825;BME280;68176;45.554;10.220;2023-08-12T03:59:54;100472.19;;;27.12;49.27
78825;BME280;68176;45.554;10.220;2023-08-12T04:02:25;100471.34;;;27.12;49.07
78825;BME280;68176;45.554;10.220;2023-08-12T04:04:55;100478.31;;;27.19;49.13
78825;BME280;68176;45.554;10.220;2023-08-12T04:07:25;100484.28;;;27.21;49.29
78825;BME280;68176;45.554;10.220;2023-08-12T04:09:55;100460.66;;;27.05;49.39
78825;BME280;68176;45.554;10.220;2023-08-12T04:12:25;100472.38;;;27.11;48.92
78825;BME280;68176;45.554;10.220;2023-08-12T04:14:55;100490.38;;;27.17;49.18
78825;BME280;68176;45.554;10.220;2023-08-12T04:17:25;100479.59;;;27.17;49.17
78825;BME280;68176;45.554;10.220;2023-08-12T04:19:55;100459.81;;;27.04;49.52
78825;BME280;68176;45.554;10.220;2023-08-12T04:22:25;100470.31;;;27.13;49.17
78825;BME280;68176;45.554;10.220;2023-08-12T04:24:55;100479.66;;;27.10;49.02
78825;BME280;68176;45.554;10.220;2023-08-12T04:27:25;100480.25;;;27.12;49.37
78825;BME280;68176;45.554;10.220;2023-08-12T04:29:55;100457.56;;;27.01;49.54
78825;BME280;68176;45.554;10.220;2023-08-12T04:32:25;100463.19;;;27.00;49.24
78825;BME280;68176;45.554;10.220;2023-08-12T04:34:55;100478.00;;;27.09;49.25
78825;BME280;68176;45.554;10.220;2023-08-12T04:37:25;100469.19;;;27.02;49.29
78825;BME280;68176;45.554;10.220;2023-08-12T04:39:55;100480.91;;;27.08;49.17
78825;BME280;68176;45.554;10.220;2023-08-12T04:42:25;100462.00;;;26.96;49.23
78825;BME280;68176;45.554;10.220;2023-08-12T04:44:55;100460.34;;;26.95;49.58
78825;BME280;68176;45.554;10.220;2023-08-12T04:47:25;100480.31;;;27.06;49.54
78825;BME280;68176;45.554;10.220;2023-08-12T04:49:55;100480.56;;;27.04;49.11
78825;BME280;68176;45.554;10.220;2023-08-12T04:52:25;100461.63;;;26.92;49.46
78825;BME280;68176;45.554;10.220;2023-08-12T04:54:55;100465.72;;;26.95;49.58
78825;BME280;68176;45.554;10.220;2023-08-12T04:57:25;100461.41;;;26.94;49.25
78825;BME280;68176;45.554;10.220;2023-08-12T04:59:55;100481.44;;;26.98;49.40
78825;BME280;68176;45.554;10.220;2023-08-12T05:02:25;100460.19;;;26.90;49.28
78825;BME280;68176;45.554;10.220;2023-08-12T05:04:55;100481.00;;;27.01;49.31
78825;BME280;68176;45.554;10.220;2023-08-12T05:07:25;100459.63;;;26.88;49.30
78825;BME280;68176;45.554;10.220;2023-08-12T05:09:55;100481.44;;;26.98;49.48
78825;BME280;68176;45.554;10.220;2023-08-12T05:12:25;100467.91;;;26.86;49.28
78825;BME280;68176;45.554;10.220;2023-08-12T05:14:55;100480.00;;;26.95;49.21
78825;BME280;68176;45.554;10.220;2023-08-12T05:17:25;100468.28;;;26.90;49.43
78825;BME280;68176;45.554;10.220;2023-08-12T05:19:55;100458.41;;;26.84;49.55
78825;BME280;68176;45.554;10.220;2023-08-12T05:22:25;100453.06;;;26.77;49.12
78825;BME280;68176;45.554;10.220;2023-08-12T05:24:55;100466.63;;;26.89;49.13
78825;BME280;68176;45.554;10.220;2023-08-12T05:27:25;100483.53;;;26.96;49.18
78825;BME280;68176;45.554;10.220;2023-08-12T05:29:55;100463.78;;;26.84;49.20
78825;BME280;68176;45.554;10.220;2023-08-12T05:32:25;100476.34;;;26.90;49.03
78825;BME280;68176;45.554;10.220;2023-08-12T05:34:55;100476.94;;;26.92;49.29
78825;BME280;68176;45.554;10.220;2023-08-12T05:37:25;100457.81;;;26.82;49.35
78825;BME280;68176;45.554;10.220;2023-08-12T05:39:55;100462.53;;;26.80;49.14
78825;BME280;68176;45.554;10.220;2023-08-12T05:42:25;100463.78;;;26.84;49.10
78825;BME280;68176;45.554;10.220;2023-08-12T05:44:55;100473.53;;;26.85;49.40
78825;BME280;68176;45.554;10.220;2023-08-12T05:47:25;100459.47;;;26.76;49.46
78825;BME280;68176;45.554;10.220;2023-08-12T05:49:55;100457.41;;;26.78;49.01
78825;BME280;68176;45.554;10.220;2023-08-12T05:52:26;100475.31;;;26.91;49.19
78825;BME280;68176;45.554;10.220;2023-08-12T05:54:55;100470.97;;;26.90;49.07
78825;BME280;68176;45.554;10.220;2023-08-12T05:57:25;100467.91;;;26.86;48.84
78825;BME280;68176;45.554;10.220;2023-08-12T05:59:55;100468.13;;;26.85;49.22
78825;BME280;68176;45.554;10.220;2023-08-12T06:02:25;100472.00;;;26.89;49.22
78825;BME280;68176;45.554;10.220;2023-08-12T06:04:55;100460.09;;;26.78;49.07
78825;BME280;68176;45.554;10.220;2023-08-12T06:07:25;100460.91;;;26.79;49.02
78825;BME280;68176;45.554;10.220;2023-08-12T06:09:55;100465.44;;;26.85;49.24
78825;BME280;68176;45.554;10.220;2023-08-12T06:12:25;100459.69;;;26.81;48.86
78825;BME280;68176;45.554;10.220;2023-08-12T06:14:55;100452.22;;;26.77;48.81
78825;BME280;68176;45.554;10.220;2023-08-12T06:17:25;100472.00;;;26.89;49.08
78825;BME280;68176;45.554;10.220;2023-08-12T06:19:55;100458.84;;;26.81;49.24
78825;BME280;68176;45.554;10.220;2023-08-12T06:22:25;100445.63;;;26.73;48.94
78825;BME280;68176;45.554;10.220;2023-08-12T06:24:55;100473.66;;;26.90;48.99
78825;BME280;68176;45.554;10.220;2023-08-12T06:27:26;100480.06;;;26.89;49.25
78825;BME280;68176;45.554;10.220;2023-08-12T06:29:55;100468.34;;;26.83;49.10
78825;BME280;68176;45.554;10.220;2023-08-12T06:32:25;100466.25;;;26.85;48.74
78825;BME280;68176;45.554;10.220;2023-08-12T06:34:55;100472.00;;;26.89;49.11
78825;BME280;68176;45.554;10.220;2023-08-12T06:37:25;100461.09;;;26.84;48.67
78825;BME280;68176;45.554;10.220;2023-08-12T06:39:55;100446.84;;;26.77;48.94
78825;BME280;68176;45.554;10.220;2023-08-12T06:42:25;100449.16;;;26.73;49.07
78825;BME280;68176;45.554;10.220;2023-08-12T06:44:56;100450.16;;;26.79;48.76
78825;BME280;68176;45.554;10.220;2023-08-12T06:47:26;100458.44;;;26.77;48.91
78825;BME280;68176;45.554;10.220;2023-08-12T06:49:56;100444.00;;;26.72;48.76
78825;BME280;68176;45.554;10.220;2023-08-12T06:52:26;100462.97;;;26.83;49.04
78825;BME280;68176;45.554;10.220;2023-08-12T06:54:55;100453.06;;;26.77;49.12
78825;BME280;68176;45.554;10.220;2023-08-12T06:57:26;100467.50;;;26.83;48.94
78825;BME280;68176;45.554;10.220;2023-08-12T06:59:55;100457.59;;;26.77;48.88
78825;BME280;68176;45.554;10.220;2023-08-12T07:02:25;100449.38;;;26.72;48.77
78825;BME280;68176;45.554;10.220;2023-08-12T07:04:56;100445.63;;;26.73;48.80
78825;BME280;68176;45.554;10.220;2023-08-12T07:07:25;100444.44;;;26.69;48.98
78825;BME280;68176;45.554;10.220;2023-08-12T07:09:56;100445.63;;;26.73;49.10
78825;BME280;68176;45.554;10.220;2023-08-12T07:12:26;100458.41;;;26.84;49.01
78825;BME280;68176;45.554;10.220;2023-08-12T07:14:56;100446.47;;;26.73;48.84
78825;BME280;68176;45.554;10.220;2023-08-12T07:17:26;100442.34;;;26.71;48.93
78825;BME280;68176;45.554;10.220;2023-08-12T07:19:56;100481.16;;;26.88;48.67
78825;BME280;68176;45.554;10.220;2023-08-12T07:22:27;100468.59;;;26.82;48.77
78825;BME280;68176;45.554;10.220;2023-08-12T07:24:56;100451.41;;;26.76;48.68
78825;BME280;68176;45.554;10.220;2023-08-12T07:27:27;100467.06;;;26.86;49.13
78825;BME280;68176;45.554;10.220;2023-08-12T07:29:56;100462.13;;;26.83;48.92
78825;BME280;68176;45.554;10.220;2023-08-12T07:32:26;100467.91;;;26.86;49.00
78825;BME280;68176;45.554;10.220;2023-08-12T07:34:56;100452.22;;;26.77;48.57
78825;BME280;68176;45.554;10.220;2023-08-12T07:37:26;100454.47;;;26.80;49.06
78825;BME280;68176;45.554;10.220;2023-08-12T07:39:56;100451.19;;;26.78;48.81
78825;BME280;68176;45.554;10.220;2023-08-12T07:42:26;100438.63;;;26.72;49.00
78825;BME280;68176;45.554;10.220;2023-08-12T07:44:56;100468.59;;;26.82;49.01
78825;BME280;68176;45.554;10.220;2023-08-12T07:47:26;100449.75;;;26.82;48.92
78825;BME280;68176;45.554;10.220;2023-08-12T07:49:56;100439.84;;;26.76;48.74
78825;BME280;68176;45.554;10.220;2023-08-12T07:52:26;100455.13;;;26.82;48.92
78825;BME280;68176;45.554;10.220;2023-08-12T07:54:56;100440.19;;;26.79;48.75
78825;BME280;68176;45.554;10.220;2023-08-12T07:57:26;100436.06;;;26.77;48.78
78825;BME280;68176;45.554;10.220;2023-08-12T07:59:56;100453.22;;;26.82;48.88
78825;BME280;68176;45.554;10.220;2023-08-12T08:02:26;100443.28;;;26.83;48.62
78825;BME280;68176;45.554;10.220;2023-08-12T08:04:56;100442.69;;;26.81;48.81
78825;BME280;68176;45.554;10.220;2023-08-12T08:07:26;100445.97;;;26.83;48.85
78825;BME280;68176;45.554;10.220;2023-08-12T08:09:56;100459.16;;;26.91;48.96
78825;BME280;68176;45.554;10.220;2023-08-12T08:12:26;100436.06;;;26.77;48.92
78825;BME280;68176;45.554;10.220;2023-08-12T08:14:56;100426.59;;;26.74;48.63
78825;BME280;68176;45.554;10.220;2023-08-12T08:17:26;100457.50;;;26.90;48.96
78825;BME280;68176;45.554;10.220;2023-08-12T08:19:56;100445.53;;;26.86;48.61
78825;BME280;68176;45.554;10.220;2023-08-12T08:22:26;100441.66;;;26.82;48.80
78825;BME280;68176;45.554;10.220;2023-08-12T08:24:56;100439.38;;;26.79;48.67
78825;BME280;68176;45.554;10.220;2023-08-12T08:27:26;100422.63;;;26.77;48.89
78825;BME280;68176;45.554;10.220;2023-08-12T08:29:56;100426.56;;;26.81;48.94
78825;BME280;68176;45.554;10.220;2023-08-12T08:32:26;100446.28;;;26.93;48.42
78825;BME280;68176;45.554;10.220;2023-08-12T08:34:56;100433.13;;;26.85;48.78
78825;BME280;68176;45.554;10.220;2023-08-12T08:37:26;100436.81;;;26.90;48.64
78825;BME280;68176;45.554;10.220;2023-08-12T08:39:56;100435.97;;;26.90;48.62
78825;BME280;68176;45.554;10.220;2023-08-12T08:42:27;100446.75;;;26.90;48.44
78825;BME280;68176;45.554;10.220;2023-08-12T08:44:58;100432.25;;;26.91;48.56
78825;BME280;68176;45.554;10.220;2023-08-12T08:47:27;100444.19;;;26.95;47.16
78825;BME280;68176;45.554;10.220;2023-08-12T08:49:57;100443.75;;;27.16;46.61
78825;BME280;68176;45.554;10.220;2023-08-12T08:52:27;100432.81;;;27.11;46.76
78825;BME280;68176;45.554;10.220;2023-08-12T08:54:56;100435.53;;;27.29;46.97
78825;BME280;68176;45.554;10.220;2023-08-12T08:57:26;100433.69;;;27.41;45.80
78825;BME280;68176;45.554;10.220;2023-08-12T08:59:56;100439.09;;;27.41;45.98
78825;BME280;68176;45.554;10.220;2023-08-12T09:02:26;100433.28;;;27.44;46.05
78825;BME280;68176;45.554;10.220;2023-08-12T09:04:56;100444.88;;;27.45;46.52
78825;BME280;68176;45.554;10.220;2023-08-12T09:07:26;100441.50;;;27.49;46.10
78825;BME280;68176;45.554;10.220;2023-08-12T09:09:58;100433.81;;;27.65;46.04
78825;BME280;68176;45.554;10.220;2023-08-12T09:12:26;100438.28;;;27.71;45.62
78825;BME280;68176;45.554;10.220;2023-08-12T09:14:56;100430.19;;;27.71;45.41
78825;BME280;68176;45.554;10.220;2023-08-12T09:17:26;100431.28;;;27.51;45.30
78825;BME280;68176;45.554;10.220;2023-08-12T09:19:56;100424.88;;;27.52;46.38
78825;BME280;68176;45.554;10.220;2023-08-12T09:22:26;100421.16;;;27.65;46.11
78825;BME280;68176;45.554;10.220;2023-08-12T09:24:57;100433.09;;;27.58;45.00
78825;BME280;68176;45.554;10.220;2023-08-12T09:27:27;100413.63;;;27.55;45.95
78825;BME280;68176;45.554;10.220;2023-08-12T09:29:56;100425.06;;;27.81;45.38
78825;BME280;68176;45.554;10.220;2023-08-12T09:32:26;100417.59;;;27.83;45.13
78825;BME280;68176;45.554;10.220;2023-08-12T09:34:56;100419.38;;;27.89;45.86
78825;BME280;68176;45.554;10.220;2023-08-12T09:37:26;100419.50;;;27.94;45.60
78825;BME280;68176;45.554;10.220;2023-08-12T09:39:57;100426.28;;;27.96;45.57
78825;BME280;68176;45.554;10.220;2023-08-12T09:42:27;100420.44;;;27.99;45.68
78825;BME280;68176;45.554;10.220;2023-08-12T09:44:56;100430.69;;;28.09;45.76
78825;BME280;68176;45.554;10.220;2023-08-12T09:47:26;100422.09;;;28.00;45.34
78825;BME280;68176;45.554;10.220;2023-08-12T09:49:57;100423.56;;;27.85;45.62
78825;BME280;68176;45.554;10.220;2023-08-12T09:52:27;100423.09;;;27.76;45.60
78825;BME280;68176;45.554;10.220;2023-08-12T09:54:57;100421.19;;;27.77;45.52
78825;BME280;68176;45.554;10.220;2023-08-12T09:57:27;100419.09;;;27.79;45.57
78825;BME280;68176;45.554;10.220;2023-08-12T09:59:57;100415.50;;;27.96;46.02
78825;BME280;68176;45.554;10.220;2023-08-12T10:02:27;100417.81;;;27.81;45.62
78825;BME280;68176;45.554;10.220;2023-08-12T10:04:58;100407.19;;;27.98;45.89
78825;BME280;68176;45.554;10.220;2023-08-12T10:07:26;100406.19;;;28.11;45.54
78825;BME280;68176;45.554;10.220;2023-08-12T10:09:57;100408.53;;;28.19;45.17
78825;BME280;68176;45.554;10.220;2023-08-12T10:12:27;100409.13;;;28.32;44.61
78825;BME280;68176;45.554;10.220;2023-08-12T10:14:57;100409.84;;;28.51;44.75
78825;BME280;68176;45.554;10.220;2023-08-12T10:17:27;100403.03;;;28.48;44.11
78825;BME280;68176;45.554;10.220;2023-08-12T10:19:57;100402.81;;;28.62;45.07
78825;BME280;68176;45.554;10.220;2023-08-12T10:22:27;100402.25;;;28.71;44.88
78825;BME280;68176;45.554;10.220;2023-08-12T10:24:58;100394.00;;;28.78;44.23
78825;BME280;68176;45.554;10.220;2023-08-12T10:27:26;100388.25;;;28.86;44.14
78825;BME280;68176;45.554;10.220;2023-08-12T10:29:57;100396.09;;;28.87;44.22
78825;BME280;68176;45.554;10.220;2023-08-12T10:32:26;100383.41;;;28.88;44.70
78825;BME280;68176;45.554;10.220;2023-08-12T10:34:57;100386.94;;;28.88;43.60
78825;BME280;68176;45.554;10.220;2023-08-12T10:37:27;100381.88;;;28.92;43.39
78825;BME280;68176;45.554;10.220;2023-08-12T10:39:57;100379.63;;;29.00;44.37
78825;BME280;68176;45.554;10.220;2023-08-12T10:42:44;100380.31;;;29.07;44.41
78825;BME280;68176;45.554;10.220;2023-08-12T10:45:11;100366.56;;;29.09;44.34
78825;BME280;68176;45.554;10.220;2023-08-12T10:50:34;100379.78;;;29.22;44.38
78825;BME280;68176;45.554;10.220;2023-08-12T10:53:29;100370.91;;;29.10;44.03
78825;BME280;68176;45.554;10.220;2023-08-12T10:55:59;100361.09;;;29.32;44.42
78825;BME280;68176;45.554;10.220;2023-08-12T10:58:41;100365.34;;;29.28;43.65
78825;BME280;68176;45.554;10.220;2023-08-12T11:01:13;100347.25;;;29.29;43.37
78825;BME280;68176;45.554;10.220;2023-08-12T11:03:45;100349.66;;;29.42;42.47
78825;BME280;68176;45.554;10.220;2023-08-12T11:06:11;100360.34;;;29.65;43.73
78825;BME280;68176;45.554;10.220;2023-08-12T11:08:36;100362.97;;;29.77;43.91
78825;BME280;68176;45.554;10.220;2023-08-12T11:11:19;100361.19;;;29.82;43.67
78825;BME280;68176;45.554;10.220;2023-08-12T11:24:05;100327.25;;;29.01;45.99
78825;BME280;68176;45.554;10.220;2023-08-12T11:26:50;100311.28;;;29.00;45.67
78825;BME280;68176;45.554;10.220;2023-08-12T11:29:31;100319.84;;;28.97;45.95
78825;BME280;68176;45.554;10.220;2023-08-12T11:32:00;100316.31;;;29.08;45.94
78825;BME280;68176;45.554;10.220;2023-08-12T11:34:27;100327.09;;;29.08;46.22
78825;BME280;68176;45.554;10.220;2023-08-12T11:36:52;100340.00;;;29.18;46.14
78825;BME280;68176;45.554;10.220;2023-08-12T11:39:28;100316.19;;;29.03;45.99
78825;BME280;68176;45.554;10.220;2023-08-12T11:42:04;100305.38;;;29.03;46.37
78825;BME280;68176;45.554;10.220;2023-08-12T11:44:30;100309.59;;;29.10;46.40
78825;BME280;68176;45.554;10.220;2023-08-12T11:47:00;100292.69;;;29.03;46.56
78825;BME280;68176;45.554;10.220;2023-08-12T11:49:31;100311.66;;;29.20;46.38
78825;BME280;68176;45.554;10.220;2023-08-12T11:52:00;100313.47;;;29.15;46.19
78825;BME280;68176;45.554;10.220;2023-08-12T11:54:34;100286.66;;;29.13;46.28
78825;BME280;68176;45.554;10.220;2023-08-12T11:57:03;100281.28;;;29.13;46.15
78825;BME280;68176;45.554;10.220;2023-08-12T11:59:30;100292.75;;;29.20;46.54
78825;BME280;68176;45.554;10.220;2023-08-12T12:02:24;100280.78;;;29.16;46.53
78825;BME280;68176;45.554;10.220;2023-08-12T12:08:17;100272.34;;;29.24;46.35
78825;BME280;68176;45.554;10.220;2023-08-12T12:11:07;100293.16;;;29.40;46.69
78825;BME280;68176;45.554;10.220;2023-08-12T12:13:54;100281.69;;;29.33;46.44
78825;BME280;68176;45.554;10.220;2023-08-12T12:19:58;100288.88;;;29.44;46.37
78825;BME280;68176;45.554;10.220;2023-08-12T12:22:32;100263.81;;;29.32;46.64
78825;BME280;68176;45.554;10.220;2023-08-12T12:53:56;100258.66;;;29.81;46.84
78825;BME280;68176;45.554;10.220;2023-08-12T12:56:45;100241.47;;;29.87;46.41
78825;BME280;68176;45.554;10.220;2023-08-12T12:59:24;100259.41;;;29.93;46.77
78825;BME280;68176;45.554;10.220;2023-08-12T13:01:59;100253.69;;;29.89;46.42
78825;BME280;68176;45.554;10.220;2023-08-12T13:04:25;100268.75;;;30.02;46.58
78825;BME280;68176;45.554;10.220;2023-08-12T13:07:26;100243.69;;;29.90;46.68
78825;BME280;68176;45.554;10.220;2023-08-12T13:10:06;100241.53;;;29.92;46.65
78825;BME280;68176;45.554;10.220;2023-08-12T13:12:36;100259.56;;;30.03;46.66
78825;BME280;68176;45.554;10.220;2023-08-12T13:15:05;100264.63;;;30.16;46.98
78825;BME280;68176;45.554;10.220;2023-08-12T13:17:32;100223.25;;;29.99;47.12
78825;BME280;68176;45.554;10.220;2023-08-12T13:20:00;100223.31;;;30.04;47.00
78825;BME280;68176;45.554;10.220;2023-08-12T13:25:29;100230.00;;;30.18;46.81
78825;BME280;68176;45.554;10.220;2023-08-12T13:28:02;100205.28;;;30.09;46.70
78825;BME280;68176;45.554;10.220;2023-08-12T13:30:28;100207.22;;;30.14;46.99
78825;BME280;68176;45.554;10.220;2023-08-12T13:36:11;100214.09;;;30.22;46.86
78825;BME280;68176;45.554;10.220;2023-08-12T13:38:37;100197.53;;;30.18;46.83
78825;BME280;68176;45.554;10.220;2023-08-12T13:41:05;100195.00;;;30.33;46.33
78825;BME280;68176;45.554;10.220;2023-08-12T13:43:42;100205.47;;;30.46;46.85
78825;BME280;68176;45.554;10.220;2023-08-12T13:49:09;100178.91;;;30.43;46.14
78825;BME280;68176;45.554;10.220;2023-08-12T13:51:36;100205.41;;;30.63;46.61
78825;BME280;68176;45.554;10.220;2023-08-12T13:54:15;100212.75;;;30.67;45.92
78825;BME280;68176;45.554;10.220;2023-08-12T13:56:41;100198.09;;;30.63;46.12
78825;BME280;68176;45.554;10.220;2023-08-12T13:59:09;100187.50;;;30.62;46.19
78825;BME280;68176;45.554;10.220;2023-08-12T14:01:40;100195.13;;;30.65;45.97
78825;BME280;68176;45.554;10.220;2023-08-12T14:04:33;100190.78;;;30.64;46.21